createdAt,value
2023-04-16T00:02:46.439Z,97910.13
2023-04-16T00:05:49.800Z,97897.44
2023-04-16T00:08:54.319Z,97905.91
2023-04-16T00:11:57.666Z,97905.91
2023-04-16T00:15:00.733Z,97911.91
2023-04-16T00:18:04.036Z,97913.66
2023-04-16T00:21:08.017Z,97912.81
2023-04-16T00:24:12.454Z,97920.63
2023-04-16T00:27:16.000Z,97917.97
2023-04-16T00:30:19.126Z,97917.06
2023-04-16T00:33:22.545Z,97908.50
2023-04-16T00:36:27.031Z,97890.94
2023-04-16T00:39:31.531Z,97906.13
2023-04-16T00:42:34.911Z,97907.75
2023-04-16T00:45:38.284Z,97916.31
2023-04-16T00:48:42.026Z,97906.84
2023-04-16T00:51:45.529Z,97908.63
2023-04-16T00:54:50.257Z,97908.63
2023-04-16T00:57:53.391Z,97907.81
2023-04-16T01:00:56.924Z,97906.91
2023-04-16T01:04:00.303Z,97906.13
2023-04-16T01:07:03.728Z,97910.38
2023-04-16T01:10:09.175Z,97912.13
2023-04-16T01:13:12.685Z,97916.44
2023-04-16T01:16:15.858Z,97918.94
2023-04-16T01:19:19.023Z,97917.28
2023-04-16T01:22:23.684Z,97913.78
2023-04-16T01:25:33.651Z,97916.44
2023-04-16T01:28:37.079Z,97909.59
2023-04-16T01:31:40.429Z,97913.91
2023-04-16T01:34:52.354Z,97910.44
2023-04-16T01:37:56.980Z,97912.22
2023-04-16T01:41:01.838Z,97914.81
2023-04-16T01:44:05.790Z,97911.47
2023-04-16T01:47:09.521Z,97907.97
2023-04-16T01:50:12.816Z,97920.75
2023-04-16T01:53:17.338Z,97919.91
2023-04-16T01:56:20.569Z,97921.59
2023-04-16T01:59:23.781Z,97914.75
2023-04-16T02:02:29.094Z,97914.75
2023-04-16T02:05:32.407Z,97915.59
2023-04-16T02:08:37.273Z,97907.28
2023-04-16T02:11:40.523Z,97919.19
2023-04-16T02:14:44.054Z,97917.31
2023-04-16T02:17:53.850Z,97917.38
2023-04-16T02:20:59.719Z,97908.91
2023-04-16T02:24:04.510Z,97925.06
2023-04-16T02:27:07.920Z,97913.97
2023-04-16T02:30:12.452Z,97918.16
2023-04-16T02:33:16.482Z,97923.25
2023-04-16T02:36:31.746Z,97920.69
2023-04-16T02:39:36.766Z,97924.94
2023-04-16T02:42:39.939Z,97916.31
2023-04-16T02:45:44.782Z,97922.31
2023-04-16T02:48:48.058Z,97925.72
2023-04-16T02:51:51.224Z,97927.41
2023-04-16T02:54:55.706Z,97929.97
2023-04-16T02:57:58.953Z,97924.88
2023-04-16T03:01:02.277Z,97940.28
2023-04-16T03:04:05.977Z,97935.09
2023-04-16T03:07:11.123Z,97933.50
2023-04-16T03:10:15.775Z,97936.00
2023-04-16T03:13:18.935Z,97928.22
2023-04-16T03:16:22.427Z,97932.47
2023-04-16T03:19:25.806Z,97931.50
2023-04-16T03:22:28.962Z,97935.88
2023-04-16T03:25:35.490Z,97927.25
2023-04-16T03:28:39.052Z,97942.59
2023-04-16T03:34:57.323Z,97939.56
2023-04-16T03:38:00.985Z,97949.72
2023-04-16T03:41:05.059Z,97949.72
2023-04-16T03:44:12.089Z,97947.88
2023-04-16T03:47:15.462Z,97944.50
2023-04-16T03:50:20.408Z,97945.56
2023-04-16T03:53:24.353Z,97950.44
2023-04-16T03:56:27.596Z,97951.22
2023-04-16T03:59:30.959Z,97960.19
2023-04-16T04:02:34.907Z,97956.25
2023-04-16T04:05:40.986Z,97941.34
2023-04-16T04:08:46.266Z,97960.63
2023-04-16T04:11:51.429Z,97960.75
2023-04-16T04:14:54.694Z,97966.69
2023-04-16T04:17:58.075Z,97965.72
2023-04-16T04:21:06.371Z,97973.31
2023-04-16T04:24:10.695Z,97969.97
2023-04-16T04:27:13.859Z,97979.06
2023-04-16T04:30:17.004Z,97977.63
2023-04-16T04:33:20.868Z,97957.47
2023-04-16T04:36:27.219Z,97981.72
2023-04-16T04:39:31.061Z,97981.84
2023-04-16T04:42:34.312Z,97990.34
2023-04-16T04:45:38.070Z,97970.88
2023-04-16T04:48:42.125Z,97986.78
2023-04-16T04:51:46.814Z,97987.72
2023-04-16T04:54:49.925Z,97986.78
2023-04-16T04:57:53.065Z,97993.50
2023-04-16T05:00:56.803Z,97996.88
2023-04-16T05:03:59.947Z,98000.22
2023-04-16T05:07:04.748Z,98003.63
2023-04-16T05:10:09.423Z,98003.75
2023-04-16T05:13:12.796Z,98003.50
2023-04-16T05:16:16.149Z,98010.13
2023-04-16T05:19:19.344Z,98006.84
2023-04-16T05:22:24.102Z,98016.91
2023-04-16T05:25:34.326Z,98020.44
2023-04-16T05:28:37.491Z,98016.28
2023-04-16T05:31:40.970Z,98013.44
2023-04-16T05:34:44.070Z,98014.38
2023-04-16T05:37:48.625Z,98026.19
2023-04-16T05:40:51.758Z,98023.56
2023-04-16T05:43:54.917Z,98031.69
2023-04-16T05:46:58.144Z,98028.56
2023-04-16T05:50:01.277Z,98033.78
2023-04-16T05:53:08.178Z,98035.47
2023-04-16T05:56:11.446Z,98034.72
2023-04-16T05:59:14.530Z,98034.25
2023-04-16T06:02:17.759Z,98043.72
2023-04-16T06:05:21.189Z,98042.50
2023-04-16T06:08:25.819Z,98043.00
2023-04-16T06:11:30.851Z,98049.09
2023-04-16T06:14:34.032Z,98050.56
2023-04-16T06:17:37.255Z,98048.09
2023-04-16T06:20:40.714Z,98052.63
2023-04-16T06:23:45.186Z,98055.97
2023-04-16T06:26:48.334Z,98034.69
2023-04-16T06:29:51.747Z,98049.44
2023-04-16T06:32:55.086Z,98051.97
2023-04-16T06:35:58.296Z,98055.66
2023-04-16T06:39:02.827Z,98065.63
2023-04-16T06:42:06.220Z,98062.47
2023-04-16T06:45:10.292Z,98068.28
2023-04-16T06:48:13.510Z,98066.53
2023-04-16T06:51:17.013Z,98065.44
2023-04-16T06:54:21.504Z,98073.94
2023-04-16T06:57:24.642Z,98075.63
2023-04-16T07:00:28.005Z,98077.56
2023-04-16T07:03:32.546Z,98071.38
2023-04-16T07:06:35.841Z,98075.63
2023-04-16T07:09:40.668Z,98080.00
2023-04-16T07:12:43.897Z,98080.16
2023-04-16T07:15:47.155Z,98086.72
2023-04-16T07:18:50.431Z,98091.19
2023-04-16T07:21:53.569Z,98085.81
2023-04-16T07:24:58.028Z,98084.00
2023-04-16T07:28:01.345Z,98093.25
2023-04-16T07:31:04.950Z,98095.38
2023-04-16T07:34:08.083Z,98099.50
2023-04-16T07:37:11.292Z,98103.56
2023-04-16T07:40:16.220Z,98096.66
2023-04-16T07:43:19.379Z,98093.47
2023-04-16T07:46:22.794Z,98086.50
2023-04-16T07:49:25.913Z,98093.72
2023-04-16T07:52:29.093Z,98097.72
2023-04-16T07:55:35.649Z,98097.41
2023-04-16T07:58:38.760Z,98093.56
2023-04-16T08:01:42.708Z,98094.28
2023-04-16T08:04:46.110Z,98089.47
2023-04-16T08:07:49.327Z,98094.22
2023-04-16T08:10:55.926Z,98100.44
2023-04-16T08:13:59.196Z,98099.31
2023-04-16T08:17:02.353Z,98106.50
2023-04-16T08:20:06.496Z,98104.75
2023-04-16T08:23:09.749Z,98100.13
2023-04-16T08:26:14.303Z,98087.59
2023-04-16T08:29:17.689Z,98088.44
2023-04-16T08:32:20.960Z,98094.13
2023-04-16T08:35:24.197Z,98095.09
2023-04-16T08:38:27.481Z,98084.66
2023-04-16T08:41:33.792Z,98096.25
2023-04-16T08:44:42.751Z,98097.03
2023-04-16T08:47:48.026Z,98093.81
2023-04-16T08:50:53.757Z,98111.13
2023-04-16T08:54:03.787Z,98105.75
2023-04-16T08:57:11.778Z,98097.72
2023-04-16T09:00:15.129Z,98098.75
2023-04-16T09:03:19.690Z,98093.44
2023-04-16T09:06:23.591Z,98101.69
2023-04-16T09:09:27.324Z,98108.03
2023-04-16T09:12:32.721Z,98112.84
2023-04-16T09:15:36.665Z,98120.63
2023-04-16T09:18:40.488Z,98124.31
2023-04-16T09:21:46.551Z,98124.84
2023-04-16T09:24:49.639Z,98127.91
2023-04-16T09:27:54.109Z,98123.03
2023-04-16T09:34:58.766Z,98136.72
2023-04-16T09:38:01.924Z,98131.41
2023-04-16T09:41:08.924Z,98140.84
2023-04-16T09:44:12.077Z,98136.88
2023-04-16T09:47:15.394Z,98146.47
2023-04-16T09:50:21.280Z,98150.06
2023-04-16T09:53:26.361Z,98157.19
2023-04-16T09:56:30.393Z,98157.06
2023-04-16T09:59:36.468Z,98152.03
2023-04-16T10:02:42.821Z,98154.91
2023-04-16T10:05:47.638Z,98157.75
2023-04-16T10:08:51.702Z,98170.91
2023-04-16T10:11:54.885Z,98165.28
2023-04-16T10:14:58.113Z,98166.75
2023-04-16T10:18:01.503Z,98171.06
2023-04-16T10:21:06.546Z,98183.09
2023-04-16T10:24:10.417Z,98192.97
2023-04-16T10:27:13.725Z,98192.25
2023-04-16T10:30:18.688Z,98201.56
2023-04-16T10:33:23.119Z,98207.25
2023-04-16T10:36:27.670Z,98211.84
2023-04-16T10:39:30.985Z,98221.47
2023-04-16T10:42:34.562Z,98213.72
2023-04-16T10:45:39.272Z,98228.53
2023-04-16T10:48:49.852Z,98222.41
2023-04-16T10:51:56.671Z,98228.56
2023-04-16T10:55:00.855Z,98233.66
2023-04-16T10:58:04.029Z,98237.03
2023-04-16T11:01:14.519Z,98230.00
2023-04-16T11:04:46.033Z,98236.03
2023-04-16T11:07:50.677Z,98233.44
2023-04-16T11:10:54.768Z,98234.88
2023-04-16T11:13:58.032Z,98245.53
2023-04-16T11:17:04.361Z,98245.91
2023-04-16T11:20:19.301Z,98250.34
2023-04-16T11:23:24.235Z,98257.31
2023-04-16T11:26:29.429Z,98255.13
2023-04-16T11:29:32.617Z,98262.38
2023-04-16T11:32:37.263Z,98266.09
2023-04-16T11:35:43.278Z,98261.06
2023-04-16T11:38:48.215Z,98248.19
2023-04-16T11:41:52.739Z,98255.25
2023-04-16T11:44:57.149Z,98242.47
2023-04-16T11:48:00.524Z,98248.13
2023-04-16T11:51:03.683Z,98242.41
2023-04-16T11:54:11.145Z,98241.44
2023-04-16T11:57:15.221Z,98245.91
2023-04-16T12:00:19.036Z,98253.75
2023-04-16T12:03:39.470Z,98249.59
2023-04-16T12:07:05.046Z,98257.88
2023-04-16T12:10:11.246Z,98257.47
2023-04-16T12:13:16.440Z,98251.53
2023-04-16T12:16:21.589Z,98263.06
2023-04-16T12:19:24.893Z,98266.00
2023-04-16T12:22:29.651Z,98268.72
2023-04-16T12:25:35.344Z,98267.06
2023-04-16T12:28:40.225Z,98278.56
2023-04-16T12:31:43.727Z,98277.09
2023-04-16T12:34:51.548Z,98256.69
2023-04-16T12:37:54.752Z,98283.66
2023-04-16T12:41:02.165Z,98271.44
2023-04-16T12:44:08.960Z,98280.47
2023-04-16T12:47:12.474Z,98277.19
2023-04-16T12:50:15.615Z,98279.16
2023-04-16T12:53:18.883Z,98282.03
2023-04-16T12:56:23.466Z,98279.09
2023-04-16T12:59:26.641Z,98282.72
2023-04-16T13:02:30.133Z,98281.31
2023-04-16T13:05:33.553Z,98266.94
2023-04-16T13:08:37.458Z,98253.25
2023-04-16T13:11:41.936Z,98241.56
2023-04-16T13:14:45.419Z,98232.31
2023-04-16T13:17:48.607Z,98225.91
2023-04-16T13:20:51.994Z,98222.00
2023-04-16T13:23:55.210Z,98222.72
2023-04-16T13:26:59.797Z,98224.25
2023-04-16T13:30:02.956Z,98223.28
2023-04-16T13:33:06.240Z,98226.34
2023-04-16T13:36:09.542Z,98229.94
2023-04-16T13:39:12.733Z,98224.69
2023-04-16T13:42:17.521Z,98220.19
2023-04-16T13:45:21.293Z,98223.41
2023-04-16T13:48:24.513Z,98221.84
2023-04-16T13:51:28.078Z,98216.41
2023-04-16T13:54:31.707Z,98223.94
2023-04-16T13:57:36.340Z,98218.03
2023-04-16T14:00:39.500Z,98215.03
2023-04-16T14:03:43.254Z,98214.38
2023-04-16T14:06:46.507Z,98202.16
2023-04-16T14:09:49.610Z,98212.38
2023-04-16T14:12:54.128Z,98220.25
2023-04-16T14:15:57.295Z,98215.75
2023-04-16T14:19:00.493Z,98213.78
2023-04-16T14:22:03.753Z,98202.03
2023-04-16T14:25:07.878Z,98211.63
2023-04-16T14:28:15.514Z,98205.97
2023-04-16T14:31:20.058Z,98196.69
2023-04-16T14:34:23.265Z,98207.13
2023-04-16T14:37:26.573Z,98198.88
2023-04-16T14:40:33.750Z,98194.41
2023-04-16T14:43:40.456Z,98204.09
2023-04-16T14:46:43.776Z,98204.31
2023-04-16T14:49:46.920Z,98204.94
2023-04-16T14:52:50.124Z,98208.91
2023-04-16T14:55:53.504Z,98163.19
2023-04-16T14:58:58.050Z,98222.78
2023-04-16T15:02:01.357Z,98223.75
2023-04-16T15:05:04.780Z,98218.16
2023-04-16T15:08:07.935Z,98222.25
2023-04-16T15:11:11.596Z,98223.75
2023-04-16T15:14:16.822Z,98230.50
2023-04-16T15:17:22.226Z,98231.81
2023-04-16T15:20:25.852Z,98234.41
2023-04-16T15:23:29.719Z,98234.84
2023-04-16T15:26:32.869Z,98212.00
2023-04-16T15:29:37.531Z,98160.50
2023-04-16T15:34:57.085Z,98232.19
2023-04-16T15:38:00.554Z,98235.56
2023-04-16T15:41:03.719Z,98236.44
2023-04-16T15:44:07.238Z,98243.69
2023-04-16T15:47:10.379Z,98247.03
2023-04-16T15:50:14.839Z,98251.91
2023-04-16T15:53:18.137Z,98246.50
2023-04-16T15:56:21.338Z,98256.81
2023-04-16T15:59:24.685Z,98256.97
2023-04-16T16:02:29.781Z,98256.91
2023-04-16T16:05:34.641Z,98232.13
2023-04-16T16:08:38.360Z,98262.59
2023-04-16T16:11:42.271Z,98266.53
2023-04-16T16:14:45.413Z,98268.69
2023-04-16T16:17:48.588Z,98269.59
2023-04-16T16:20:57.994Z,98270.94
2023-04-16T16:24:01.180Z,98277.78
2023-04-16T16:27:04.907Z,98278.72
2023-04-16T16:30:11.161Z,98283.56
2023-04-16T16:33:15.022Z,98289.84
2023-04-16T16:36:20.024Z,98279.41
2023-04-16T16:39:25.200Z,98295.31
2023-04-16T16:42:28.485Z,98288.44
2023-04-16T16:45:31.760Z,98292.66
2023-04-16T16:48:34.881Z,98292.28
2023-04-16T16:51:39.397Z,98288.44
2023-04-16T16:54:43.165Z,98288.94
2023-04-16T16:57:46.345Z,98298.75
2023-04-16T17:00:49.785Z,98246.94
2023-04-16T17:03:53.250Z,98296.09
2023-04-16T17:06:57.970Z,98295.38
2023-04-16T17:10:03.729Z,98300.91
2023-04-16T17:13:07.890Z,98300.50
2023-04-16T17:16:11.277Z,98313.00
2023-04-16T17:19:15.351Z,98318.97
2023-04-16T17:22:19.944Z,98324.06
2023-04-16T17:25:23.162Z,98326.75
2023-04-16T17:28:27.023Z,98336.66
2023-04-16T17:31:30.230Z,98338.25
2023-04-16T17:34:33.414Z,98345.56
2023-04-16T17:37:37.977Z,98347.69
2023-04-16T17:40:41.248Z,98350.19
2023-04-16T17:43:44.627Z,98363.16
2023-04-16T17:46:47.794Z,98365.16
2023-04-16T17:49:54.018Z,98373.22
2023-04-16T17:53:03.461Z,98374.63
2023-04-16T17:56:06.698Z,98375.13
2023-04-16T17:59:09.855Z,98376.03
2023-04-16T18:02:13.052Z,98385.47
2023-04-16T18:05:16.475Z,98390.72
2023-04-16T18:08:21.019Z,98396.72
2023-04-16T18:11:24.331Z,98398.09
2023-04-16T18:14:27.530Z,98410.84
2023-04-16T18:17:30.894Z,98416.28
2023-04-16T18:20:34.422Z,98414.69
2023-04-16T18:23:39.072Z,98421.09
2023-04-16T18:26:46.098Z,98427.81
2023-04-16T18:29:51.347Z,98418.91
2023-04-16T18:33:25.371Z,98433.56
2023-04-16T18:36:18.152Z,98437.84
2023-04-16T18:39:22.748Z,98434.34
2023-04-16T18:42:27.791Z,98446.34
2023-04-16T18:45:34.110Z,98452.56
2023-04-16T18:48:37.711Z,98452.06
2023-04-16T18:51:41.896Z,98450.44
2023-04-16T18:54:46.506Z,98450.22
2023-04-16T18:57:50.034Z,98463.47
2023-04-16T19:00:53.947Z,98469.53
2023-04-16T19:03:57.475Z,98472.13
2023-04-16T19:07:00.967Z,98480.63
2023-04-16T19:10:06.823Z,98478.94
2023-04-16T19:13:10.131Z,98483.16
2023-04-16T19:16:13.497Z,98482.56
2023-04-16T19:19:17.872Z,98488.63
2023-04-16T19:22:21.055Z,98482.25
2023-04-16T19:25:25.786Z,98496.50
2023-04-16T19:28:29.092Z,98494.69
2023-04-16T19:31:32.509Z,98496.25
2023-04-16T19:34:36.061Z,98500.34
2023-04-16T19:37:39.385Z,98494.91
2023-04-16T19:40:46.691Z,98469.81
2023-04-16T19:43:50.055Z,98490.75
2023-04-16T19:46:53.306Z,98493.28
2023-04-16T19:49:56.570Z,98495.88
2023-04-16T19:52:59.867Z,98505.97
2023-04-16T19:56:04.576Z,98501.94
2023-04-16T19:59:07.963Z,98503.69
2023-04-16T20:02:11.366Z,98499.72
2023-04-16T20:05:15.097Z,98506.72
2023-04-16T20:08:18.340Z,98510.00
2023-04-16T20:11:22.875Z,98510.16
2023-04-16T20:14:26.124Z,98506.91
2023-04-16T20:17:29.382Z,98506.03
2023-04-16T20:20:35.622Z,98498.84
2023-04-16T20:23:38.745Z,98508.19
2023-04-16T20:26:43.542Z,98512.47
2023-04-16T20:29:46.746Z,98510.41
2023-04-16T20:32:49.896Z,98514.72
2023-04-16T20:35:53.017Z,98509.97
2023-04-16T20:38:56.148Z,98512.09
2023-04-16T20:42:04.128Z,98510.28
2023-04-16T20:45:08.880Z,98490.38
2023-04-16T20:48:12.454Z,98501.56
2023-04-16T20:51:15.826Z,98505.63
2023-04-16T20:54:19.015Z,98512.50
2023-04-16T20:57:23.538Z,98506.63
2023-04-16T21:00:26.995Z,98511.09
2023-04-16T21:03:30.357Z,98507.72
2023-04-16T21:06:38.249Z,98468.50
2023-04-16T21:09:41.384Z,98515.19
2023-04-16T21:12:45.868Z,98511.78
2023-04-16T21:15:49.201Z,98493.47
2023-04-16T21:18:52.378Z,98508.91
2023-04-16T21:21:55.987Z,98514.19
2023-04-16T21:24:59.159Z,98512.28
2023-04-16T21:28:03.593Z,98504.59
2023-04-16T21:34:56.861Z,98514.06
2023-04-16T21:38:00.189Z,98514.28
2023-04-16T21:41:03.375Z,98514.41
2023-04-16T21:44:06.627Z,98513.06
2023-04-16T21:47:09.798Z,98512.22
2023-04-16T21:50:14.755Z,98513.69
2023-04-16T21:53:18.070Z,98509.91
2023-04-16T21:56:21.422Z,98504.91
2023-04-16T21:59:24.683Z,98510.66
2023-04-16T22:02:28.648Z,98504.69
2023-04-16T22:05:33.192Z,98502.00
2023-04-16T22:08:36.296Z,98505.22
2023-04-16T22:11:39.453Z,98504.38
2023-04-16T22:14:52.183Z,98507.34
2023-04-16T22:18:05.517Z,98502.06
2023-04-16T22:21:09.974Z,98488.28
2023-04-16T22:24:13.228Z,98501.59
2023-04-16T22:27:16.791Z,98499.88
2023-04-16T22:30:20.053Z,98509.19
2023-04-16T22:33:23.277Z,98499.25
2023-04-16T22:36:27.978Z,98500.81
2023-04-16T22:39:31.538Z,98502.44
2023-04-16T22:42:34.787Z,98502.91
2023-04-16T22:45:38.294Z,98506.78
2023-04-16T22:48:41.557Z,98499.13
2023-04-16T22:51:46.129Z,98489.88
2023-04-16T22:54:49.491Z,98500.59
2023-04-16T22:57:52.652Z,98507.09
2023-04-16T23:00:57.436Z,98510.53
2023-04-16T23:04:01.258Z,98508.72
2023-04-16T23:07:05.833Z,98515.50
2023-04-16T23:10:09.699Z,98510.34
2023-04-16T23:13:14.265Z,98513.00
2023-04-16T23:16:17.412Z,98504.25
2023-04-16T23:19:20.553Z,98516.34
2023-04-16T23:22:25.123Z,98509.69
2023-04-16T23:25:33.797Z,98442.34
2023-04-16T23:28:37.000Z,98504.66
2023-04-16T23:31:40.290Z,98511.56
2023-04-16T23:34:43.724Z,98510.41
2023-04-16T23:37:48.240Z,98506.41
2023-04-16T23:40:51.528Z,98506.78
2023-04-16T23:43:54.909Z,98504.84
2023-04-16T23:46:58.223Z,98505.25
2023-04-16T23:50:01.415Z,98499.91
2023-04-16T23:53:06.092Z,98506.63
2023-04-16T23:56:10.974Z,98504.84
2023-04-16T23:59:14.334Z,98507.41
